Time;durP1;ratioP1;P1;durP2;ratioP2;P2;SDS_P1;SDS_P2;PMS_P1;PMS_P2;Temp;Humidity;BMP_temperature;BMP_pressure;BME280_temperature;BME280_humidity;BME280_pressure;Samples;Min_cycle;Max_cycle;Signal;HPM_P1;HPM_P2
2023/03/09 00:01:55;;;;;;;12.80;7.60;;;;;;;3.44;81.64;97242.13;5141933;27;20031;-80
2023/03/09 00:04:22;;;;;;;16.13;8.70;;;;;;;3.37;80.97;97237.88;5139945;27;20654;-81
2023/03/09 00:06:48;;;;;;;14.63;7.28;;;;;;;3.30;81.88;97236.53;5141643;27;20030;-82
2023/03/09 00:09:14;;;;;;;22.35;8.25;;;;;;;3.38;82.00;97231.38;5140538;27;20043;-81
2023/03/09 00:11:41;;;;;;;19.80;9.52;;;;;;;3.46;82.27;97231.84;5143164;27;20023;-80
2023/03/09 00:14:07;;;;;;;12.85;7.30;;;;;;;3.42;81.57;97233.53;5141563;27;20035;-81
2023/03/09 00:16:32;;;;;;;15.98;9.18;;;;;;;3.36;81.79;97230.03;5140448;27;20106;-81
2023/03/09 00:18:57;;;;;;;12.95;8.40;;;;;;;3.02;83.00;97231.59;5140286;27;20380;-81
2023/03/09 00:24:26;;;;;;;12.35;6.80;;;;;;;3.31;82.25;97244.38;5134313;27;20403;-81
2023/03/09 00:26:56;;;;;;;13.27;8.88;;;;;;;3.37;82.00;97243.25;5138337;27;20117;-81
2023/03/09 00:29:23;;;;;;;13.63;8.77;;;;;;;3.34;82.34;97249.19;5140366;27;20047;-81
2023/03/09 00:31:48;;;;;;;12.40;7.03;;;;;;;3.34;82.41;97254.56;5140704;27;20041;-81
2023/03/09 00:34:15;;;;;;;15.82;8.35;;;;;;;3.36;81.94;97263.19;5140224;27;20042;-81
2023/03/09 00:36:41;;;;;;;16.25;9.88;;;;;;;3.37;82.06;97264.00;5141662;27;20388;-81
2023/03/09 00:39:06;;;;;;;18.40;11.20;;;;;;;3.37;82.04;97270.19;5140683;27;20053;-81
2023/03/09 00:41:32;;;;;;;18.05;8.60;;;;;;;3.33;81.78;97274.53;5140956;27;20030;-81
2023/03/09 00:43:59;;;;;;;13.65;7.35;;;;;;;3.36;81.41;97263.19;5139858;27;20114;-81
2023/03/09 00:46:25;;;;;;;12.48;7.95;;;;;;;3.29;82.22;97251.09;5140332;27;20105;-81
2023/03/09 00:48:50;;;;;;;16.48;9.07;;;;;;;3.21;82.29;97274.03;5138321;27;20138;-80
2023/03/09 00:51:16;;;;;;;12.90;7.78;;;;;;;3.33;81.91;97262.94;5144412;27;20030;-79
2023/03/09 00:53:42;;;;;;;12.98;8.43;;;;;;;3.32;82.17;97267.50;5139837;27;20053;-80
2023/03/09 00:56:12;;;;;;;15.48;7.72;;;;;;;3.45;81.60;97276.06;5137708;27;20031;-81
2023/03/09 00:58:37;;;;;;;12.98;8.18;;;;;;;3.46;80.88;97277.66;5139230;27;20043;-80
2023/03/09 01:01:07;;;;;;;15.98;8.60;;;;;;;3.40;81.59;97274.19;5140209;27;20035;-81
2023/03/09 01:03:33;;;;;;;14.95;7.43;;;;;;;3.40;81.55;97284.19;5139191;27;20047;-80
2023/03/09 01:05:59;;;;;;;16.77;8.93;;;;;;;3.46;81.73;97283.84;5141520;27;20391;-80
2023/03/09 01:08:24;;;;;;;12.20;7.32;;;;;;;3.43;81.32;97278.22;5139061;27;20496;-80
2023/03/09 01:10:50;;;;;;;15.82;9.73;;;;;;;3.41;81.52;97275.00;5141625;27;20037;-81
2023/03/09 01:13:15;;;;;;;17.52;9.20;;;;;;;3.39;81.88;97272.59;5140353;27;20035;-80
2023/03/09 01:15:40;;;;;;;15.18;7.68;;;;;;;3.34;81.99;97275.31;5139892;27;20114;-81
2023/03/09 01:18:06;;;;;;;13.10;8.93;;;;;;;3.35;81.79;97277.75;5138633;27;20042;-80
2023/03/09 01:20:31;;;;;;;11.73;7.13;;;;;;;3.26;81.73;97263.22;5140184;27;20319;-81
2023/03/09 01:22:56;;;;;;;14.57;9.00;;;;;;;3.31;81.65;97271.31;5144483;27;20260;-81
2023/03/09 01:25:22;;;;;;;17.45;9.10;;;;;;;3.35;81.81;97277.75;5143528;27;20567;-80
2023/03/09 01:27:47;;;;;;;16.80;9.40;;;;;;;3.32;81.72;97278.28;5143253;27;20027;-81
2023/03/09 01:30:13;;;;;;;16.27;7.85;;;;;;;3.21;81.90;97276.75;5144670;27;20490;-81
2023/03/09 01:32:38;;;;;;;14.57;9.20;;;;;;;3.27;82.49;97278.31;5144167;27;20071;-81
2023/03/09 01:35:05;;;;;;;14.95;9.40;;;;;;;3.35;81.73;97277.75;5144446;27;20053;-80
2023/03/09 01:37:31;;;;;;;14.13;7.90;;;;;;;3.36;81.47;97273.94;5144513;27;20026;-80
2023/03/09 01:39:56;;;;;;;14.57;9.60;;;;;;;3.35;81.19;97271.53;5144943;27;20175;-80
2023/03/09 01:42:21;;;;;;;17.92;10.13;;;;;;;3.34;81.56;97275.31;5143695;27;20023;-80
2023/03/09 01:45:10;;;;;;;22.48;12.30;;;;;;;3.35;82.07;97285.81;5144221;27;20168;-80
2023/03/09 01:47:35;;;;;;;20.38;13.10;;;;;;;3.31;82.29;97300.94;5142870;27;20031;-81
2023/03/09 01:50:02;;;;;;;14.93;8.83;;;;;;;3.22;81.45;97316.84;5144295;27;20187;-80
2023/03/09 01:52:32;;;;;;;17.73;10.60;;;;;;;3.05;82.17;97322.59;5144102;27;20270;-80
2023/03/09 01:55:02;;;;;;;24.40;12.43;;;;;;;2.66;83.76;97330.25;5144100;27;20043;-80
2023/03/09 01:57:32;;;;;;;26.48;13.93;;;;;;;2.79;84.67;97344.19;5143460;27;20053;-80
2023/03/09 02:00:12;;;;;;;25.52;14.60;;;;;;;2.93;83.75;97339.03;5144198;27;20914;-80
2023/03/09 02:02:43;;;;;;;23.75;14.40;;;;;;;3.06;83.19;97340.34;5143536;27;20055;-80
2023/03/09 02:05:16;;;;;;;23.63;11.90;;;;;;;3.20;82.98;97339.75;5143212;27;20121;-79
2023/03/09 02:07:45;;;;;;;24.05;13.32;;;;;;;3.29;82.71;97332.72;5143472;27;20636;-80
2023/03/09 02:10:22;;;;;;;20.33;13.15;;;;;;;3.30;82.13;97334.31;5142919;27;20038;-79
2023/03/09 02:12:52;;;;;;;23.60;14.48;;;;;;;3.31;82.19;97341.34;5143199;27;20019;-80
2023/03/09 02:15:19;;;;;;;20.33;12.95;;;;;;;3.35;82.30;97355.03;5142479;27;20126;-80
2023/03/09 02:17:44;;;;;;;24.00;14.73;;;;;;;3.38;81.32;97363.38;5143211;27;20019;-80
2023/03/09 02:20:33;;;;;;;20.45;12.13;;;;;;;3.32;82.04;97364.47;5142682;27;20100;-80
2023/03/09 02:23:01;;;;;;;24.30;14.55;;;;;;;3.34;82.04;97362.31;5143900;27;20063;-80
2023/03/09 02:25:52;;;;;;;20.98;14.82;;;;;;;3.38;81.88;97367.94;5142536;27;20034;-81
2023/03/09 02:28:18;;;;;;;24.73;13.18;;;;;;;3.39;81.65;97372.28;5140396;27;20475;-80
2023/03/09 02:30:47;;;;;;;21.80;11.73;;;;;;;3.38;81.80;97384.94;5143856;27;20089;-80
2023/03/09 02:33:25;;;;;;;23.23;14.10;;;;;;;3.38;82.60;97386.81;5141874;27;20056;-80
2023/03/09 02:35:52;;;;;;;23.08;13.93;;;;;;;3.37;81.86;97394.09;5142083;27;20019;-80
2023/03/09 02:38:18;;;;;;;32.38;17.35;;;;;;;3.39;81.20;97407.28;5144353;27;20103;-79
2023/03/09 02:40:44;;;;;;;24.48;16.20;;;;;;;3.37;81.25;97410.25;5143821;27;20405;-79
2023/03/09 02:43:10;;;;;;;28.65;18.15;;;;;;;3.36;81.60;97414.03;5143178;27;20026;-80
2023/03/09 02:45:35;;;;;;;28.98;15.55;;;;;;;3.43;82.00;97407.53;5144397;27;20087;-80
2023/03/09 02:48:00;;;;;;;31.85;17.73;;;;;;;3.46;81.69;97412.34;5140846;27;20034;-80
2023/03/09 02:50:26;;;;;;;41.70;19.27;;;;;;;3.43;81.58;97416.44;5142445;27;20102;-81
2023/03/09 02:52:52;;;;;;;38.28;21.92;;;;;;;3.38;81.11;97414.56;5143999;27;20478;-79
2023/03/09 02:55:21;;;;;;;33.17;19.30;;;;;;;3.37;81.56;97415.66;5144599;27;20031;-80
2023/03/09 02:57:46;;;;;;;31.55;19.73;;;;;;;3.37;81.37;97414.84;5142826;27;20043;-81
2023/03/09 03:00:13;;;;;;;38.72;19.65;;;;;;;3.34;81.47;97426.16;5142291;27;20037;-80
2023/03/09 03:02:39;;;;;;;34.53;17.48;;;;;;;3.30;81.84;97433.16;5141840;27;20379;-80
2023/03/09 03:05:06;;;;;;;43.20;20.60;;;;;;;3.33;82.08;97430.75;5141919;27;20031;-80
2023/03/09 03:07:31;;;;;;;37.00;21.35;;;;;;;3.31;81.69;97438.28;5141710;27;20051;-81
2023/03/09 03:09:57;;;;;;;38.83;21.45;;;;;;;3.35;81.82;97442.06;5143098;27;20042;-81
2023/03/09 03:12:22;;;;;;;28.55;19.73;;;;;;;3.35;81.71;97444.75;5141881;27;20288;-80
2023/03/09 03:14:47;;;;;;;36.47;21.17;;;;;;;3.32;82.01;97447.97;5145090;27;20031;-81
2023/03/09 03:17:13;;;;;;;36.25;22.38;;;;;;;3.34;81.68;97451.22;5142630;27;20041;-80
2023/03/09 03:19:38;;;;;;;44.75;25.23;;;;;;;3.38;81.62;97446.88;5141126;27;20113;-81
2023/03/09 03:22:04;;;;;;;42.83;24.63;;;;;;;3.35;82.13;97439.38;5145193;27;20041;-81
2023/03/09 03:24:29;;;;;;;44.58;23.17;;;;;;;3.36;81.56;97454.44;5144210;27;20023;-81
2023/03/09 03:26:55;;;;;;;33.55;20.73;;;;;;;3.34;81.67;97443.13;5144002;27;20045;-79
2023/03/09 03:29:21;;;;;;;35.05;18.67;;;;;;;3.27;81.58;97448.00;5140867;27;20940;-81
2023/03/09 03:31:46;;;;;;;33.20;19.75;;;;;;;3.28;82.26;97449.59;5140406;27;20026;-80
2023/03/09 03:34:11;;;;;;;36.20;21.88;;;;;;;3.26;82.65;97449.88;5141421;27;20110;-81
2023/03/09 03:36:37;;;;;;;36.25;20.92;;;;;;;3.30;82.10;97455.53;5142606;27;20465;-81
2023/03/09 03:39:04;;;;;;;39.95;21.88;;;;;;;3.27;82.31;97469.56;5141053;27;20062;-80
2023/03/09 03:41:30;;;;;;;33.50;19.70;;;;;;;3.31;82.21;97476.00;5139851;27;20467;-80
2023/03/09 03:43:55;;;;;;;36.72;18.92;;;;;;;3.29;81.95;97472.78;5141914;27;20026;-79
2023/03/09 03:46:20;;;;;;;30.33;16.98;;;;;;;3.29;82.02;97483.56;5140292;27;20142;-80
2023/03/09 03:48:45;;;;;;;33.90;19.25;;;;;;;3.30;81.85;97490.53;5141696;27;20647;-81
2023/03/09 03:51:11;;;;;;;33.33;18.33;;;;;;;3.35;81.66;97498.63;5141727;27;20026;-80
2023/03/09 03:53:36;;;;;;;32.00;18.00;;;;;;;3.35;81.89;97498.63;5141898;27;20255;-80
2023/03/09 03:56:02;;;;;;;32.83;17.17;;;;;;;3.37;81.84;97498.34;5140760;27;20047;-80
2023/03/09 03:58:28;;;;;;;30.27;18.90;;;;;;;3.37;82.02;97506.44;5139134;27;20058;-81
2023/03/09 04:00:53;;;;;;;29.70;16.00;;;;;;;3.33;82.04;97506.16;5141794;27;20062;-81
2023/03/09 04:03:18;;;;;;;33.83;18.00;;;;;;;3.33;82.04;97516.94;5140469;27;20031;-80
2023/03/09 04:05:45;;;;;;;38.53;22.05;;;;;;;3.35;81.66;97520.19;5140615;27;20495;-80
2023/03/09 04:08:10;;;;;;;67.80;24.00;;;;;;;3.34;82.53;97523.94;5140131;27;20030;-81
2023/03/09 04:10:40;;;;;;;64.88;25.42;;;;;;;3.40;82.61;97529.34;5140713;27;20023;-81
2023/03/09 04:13:05;;;;;;;191.75;35.95;;;;;;;3.37;82.39;97523.41;5140239;27;20628;-81
2023/03/09 04:15:32;;;;;;;46.45;23.95;;;;;;;3.34;82.80;97532.00;5141043;27;20051;-81
2023/03/09 04:17:57;;;;;;;65.43;26.90;;;;;;;3.38;82.53;97535.78;5141104;27;20041;-81
2023/03/09 04:20:22;;;;;;;159.20;34.80;;;;;;;3.37;82.39;97536.88;5140450;27;20429;-81
2023/03/09 04:22:49;;;;;;;88.80;31.48;;;;;;;3.37;82.18;97539.56;5140511;27;20030;-80
2023/03/09 04:25:15;;;;;;;41.63;24.58;;;;;;;3.36;82.51;97534.44;5140811;27;20380;-80
2023/03/09 04:27:40;;;;;;;52.42;25.60;;;;;;;3.39;82.72;97539.28;5140110;27;20027;-82
2023/03/09 04:30:06;;;;;;;54.90;27.10;;;;;;;3.37;81.77;97549.53;5140679;27;20452;-81
2023/03/09 04:32:32;;;;;;;37.47;20.95;;;;;;;3.38;82.50;97562.72;5139328;27;20177;-81
2023/03/09 04:34:57;;;;;;;36.27;21.23;;;;;;;3.44;82.17;97565.44;5140726;27;20399;-81
2023/03/09 04:37:22;;;;;;;55.27;31.10;;;;;;;3.41;81.93;97565.94;5139424;27;20292;-81
2023/03/09 04:39:47;;;;;;;60.47;31.53;;;;;;;3.35;82.45;97574.06;5140051;27;20266;-81
2023/03/09 04:42:13;;;;;;;39.30;20.93;;;;;;;3.33;82.42;97581.59;5140175;27;20330;-81
2023/03/09 04:44:38;;;;;;;77.68;30.20;;;;;;;3.33;82.91;97575.41;5139925;27;20273;-80
2023/03/09 04:47:03;;;;;;;54.85;25.70;;;;;;;3.30;82.86;97578.63;5139045;27;20500;-81
2023/03/09 04:49:29;;;;;;;41.20;21.40;;;;;;;3.30;nan;97578.63;5138801;27;20042;-81
2023/03/09 04:51:55;;;;;;;55.45;26.20;;;;;;;3.36;82.79;97581.03;5140441;27;20030;-81
2023/03/09 04:54:20;;;;;;;43.95;25.75;;;;;;;3.38;81.92;97573.50;5139931;27;20035;-80
2023/03/09 04:56:45;;;;;;;45.97;24.00;;;;;;;3.38;82.91;97576.19;5139571;27;20047;-81
2023/03/09 04:59:11;;;;;;;39.28;23.55;;;;;;;3.33;82.51;97570.81;5137834;27;20059;-80
2023/03/09 05:01:36;;;;;;;63.50;26.98;;;;;;;3.32;82.62;97574.56;5139991;27;20116;-80
2023/03/09 05:04:01;;;;;;;45.35;24.35;;;;;;;3.30;82.44;97592.91;5139403;27;20043;-80
2023/03/09 05:06:26;;;;;;;45.53;25.02;;;;;;;3.33;82.72;97586.97;5140442;27;20069;-81
2023/03/09 05:08:52;;;;;;;51.10;24.88;;;;;;;3.30;82.28;97598.28;5139055;27;20061;-80
2023/03/09 05:11:17;;;;;;;48.22;24.50;;;;;;;3.30;82.91;97603.66;5139727;27;20033;-81
2023/03/09 05:13:42;;;;;;;62.63;28.67;;;;;;;3.31;82.28;97610.69;5138536;27;20396;-81
2023/03/09 05:16:08;;;;;;;40.35;23.48;;;;;;;3.35;82.13;97611.75;5142191;27;20073;-80
2023/03/09 05:18:36;;;;;;;53.08;28.75;;;;;;;3.36;82.18;97607.97;5139346;27;20065;-80
2023/03/09 05:21:07;;;;;;;58.75;28.98;;;;;;;3.41;82.97;97609.06;5140202;27;20042;-81
2023/03/09 05:23:33;;;;;;;39.90;24.17;;;;;;;3.39;82.39;97609.34;5142252;27;20366;-79
2023/03/09 05:25:59;;;;;;;38.20;21.10;;;;;;;3.42;82.43;97614.16;5139494;27;20463;-81
2023/03/09 05:28:25;;;;;;;46.42;27.42;;;;;;;3.41;82.35;97614.44;5138900;27;20035;-81
2023/03/09 05:30:51;;;;;;;100.10;35.72;;;;;;;3.38;82.57;97622.00;5140303;27;20534;-81
2023/03/09 05:33:17;;;;;;;42.88;24.88;;;;;;;3.32;82.68;97623.06;5140022;27;20120;-81
2023/03/09 05:35:42;;;;;;;106.72;34.35;;;;;;;3.31;82.64;97631.41;5138271;27;20039;-80
2023/03/09 05:38:07;;;;;;;51.67;24.75;;;;;;;3.28;82.81;97635.47;5139274;27;20037;-81
2023/03/09 05:40:32;;;;;;;67.17;27.43;;;;;;;3.34;83.16;97642.47;5138643;27;20131;-80
2023/03/09 05:42:58;;;;;;;92.50;32.13;;;;;;;3.37;82.65;97644.63;5140742;27;20254;-81
2023/03/09 05:45:23;;;;;;;48.30;22.83;;;;;;;3.41;82.01;97652.97;5140133;27;20523;-80
2023/03/09 05:47:48;;;;;;;55.42;24.50;;;;;;;3.39;82.21;97665.91;5139466;27;20027;-80
2023/03/09 05:50:15;;;;;;;41.03;24.08;;;;;;;3.35;82.50;97664.81;5138898;27;20080;-80
2023/03/09 05:52:40;;;;;;;59.30;28.42;;;;;;;3.38;82.85;97665.09;5137896;27;20037;-80
2023/03/09 05:55:05;;;;;;;45.25;28.10;;;;;;;3.29;82.89;97671.28;5139866;27;20030;-80
2023/03/09 05:57:31;;;;;;;79.03;32.63;;;;;;;3.33;83.21;97683.97;5141220;27;20476;-80
2023/03/09 05:59:56;;;;;;;80.97;31.57;;;;;;;3.33;82.92;97694.75;5139683;27;20126;-80
2023/03/09 06:02:21;;;;;;;51.57;24.93;;;;;;;3.24;82.94;97694.44;5140065;27;20755;-79
2023/03/09 06:04:51;;;;;;;51.83;28.97;;;;;;;3.29;83.27;97698.22;5140256;27;20274;-80
2023/03/09 06:07:16;;;;;;;50.78;28.25;;;;;;;3.28;82.74;97702.78;5141899;27;20259;-80
2023/03/09 06:09:41;;;;;;;54.00;31.08;;;;;;;3.34;82.81;97704.41;5141142;27;20060;-79
2023/03/09 06:12:07;;;;;;;72.55;35.33;;;;;;;3.37;83.08;97695.81;5144918;27;20383;-81
2023/03/09 06:14:32;;;;;;;44.92;26.05;;;;;;;3.38;82.28;97702.00;5142619;27;20083;-81
2023/03/09 06:16:59;;;;;;;54.88;29.77;;;;;;;3.37;82.72;97689.63;5143253;27;20123;-81
2023/03/09 06:19:24;;;;;;;60.83;31.98;;;;;;;3.33;82.60;97716.28;5141615;27;20041;-81
2023/03/09 06:21:50;;;;;;;52.88;26.80;;;;;;;3.37;82.90;97709.28;5144012;27;20387;-81
2023/03/09 06:24:15;;;;;;;55.57;27.47;;;;;;;3.37;82.37;97716.56;5142486;27;20032;-80
2023/03/09 06:26:40;;;;;;;59.65;30.17;;;;;;;3.34;82.76;97727.84;5145573;27;20283;-80
2023/03/09 06:29:05;;;;;;;61.90;32.10;;;;;;;3.34;82.69;97717.88;5144450;27;20039;-80
2023/03/09 06:31:32;;;;;;;88.60;31.92;;;;;;;3.38;82.58;97718.97;5143834;27;20486;-81
2023/03/09 06:33:57;;;;;;;49.13;26.98;;;;;;;3.28;83.25;97724.34;5142520;27;20075;-81
2023/03/09 06:36:22;;;;;;;56.47;24.58;;;;;;;3.29;83.39;97736.75;5143098;27;20543;-81
2023/03/09 06:38:48;;;;;;;72.93;30.50;;;;;;;3.33;83.07;97737.03;5140691;27;20031;-80
2023/03/09 06:41:14;;;;;;;76.20;31.90;;;;;;;3.26;83.31;97731.88;5143831;27;20321;-81
2023/03/09 06:43:40;;;;;;;108.22;33.65;;;;;;;3.28;83.28;97735.13;5142631;27;20026;-80
2023/03/09 06:46:08;;;;;;;55.75;28.75;;;;;;;3.30;83.15;97738.34;5142922;27;20444;-80
2023/03/09 06:48:33;;;;;;;52.20;27.95;;;;;;;3.33;83.23;97732.44;5140334;27;20395;-82
2023/03/09 06:50:58;;;;;;;39.45;23.80;;;;;;;3.34;83.53;97725.97;5143541;27;20046;-80
2023/03/09 06:53:23;;;;;;;46.97;24.10;;;;;;;3.33;83.44;97726.25;5139035;27;20043;-79
2023/03/09 06:55:49;;;;;;;47.83;25.98;;;;;;;3.35;83.36;97730.31;5141196;27;20427;-80
2023/03/09 06:58:14;;;;;;;40.42;23.40;;;;;;;3.38;82.89;97726.25;5140978;27;20047;-79
2023/03/09 07:00:40;;;;;;;49.20;24.50;;;;;;;3.38;83.32;97718.97;5142197;27;20480;-80
2023/03/09 07:03:09;;;;;;;40.92;23.90;;;;;;;3.41;83.30;97722.22;5141589;27;20648;-80
2023/03/09 07:05:34;;;;;;;38.40;23.58;;;;;;;3.43;82.67;97720.88;5141980;27;20045;-80
2023/03/09 07:07:59;;;;;;;47.65;24.98;;;;;;;3.44;83.57;97710.91;5141423;27;20034;-80
2023/03/09 07:10:24;;;;;;;47.58;24.25;;;;;;;3.42;83.72;97732.72;5138286;27;20452;-80
2023/03/09 07:12:50;;;;;;;37.57;21.60;;;;;;;3.48;83.17;97738.91;5139685;27;20075;-80
2023/03/09 07:15:15;;;;;;;45.70;22.93;;;;;;;3.52;83.39;97744.59;5139360;27;20256;-78
2023/03/09 07:17:44;;;;;;;43.22;21.10;;;;;;;3.43;82.55;97755.09;5140423;27;20604;-80
2023/03/09 07:20:10;;;;;;;32.40;21.00;;;;;;;3.54;82.77;97748.63;5140665;27;20371;-80
2023/03/09 07:22:35;;;;;;;47.22;22.42;;;;;;;3.59;82.69;97754.03;5141654;27;20038;-79
2023/03/09 07:25:01;;;;;;;36.53;20.40;;;;;;;3.58;82.89;97755.09;5142036;27;20042;-80
2023/03/09 07:27:27;;;;;;;29.08;18.55;;;;;;;3.61;82.54;97749.19;5141747;27;20477;-80
2023/03/09 07:29:52;;;;;;;31.35;19.15;;;;;;;3.61;82.80;97754.56;5142947;27;20106;-79
2023/03/09 07:32:18;;;;;;;37.42;19.67;;;;;;;3.61;82.86;97762.66;5141735;27;20109;-80
2023/03/09 07:34:43;;;;;;;47.92;21.63;;;;;;;3.70;82.66;97778.31;5142432;27;20038;-79
2023/03/09 07:37:09;;;;;;;41.03;20.63;;;;;;;3.69;82.03;97787.44;5140594;27;20463;-79
2023/03/09 07:39:35;;;;;;;37.60;20.98;;;;;;;3.78;82.03;97793.94;5141651;27;20030;-81
2023/03/09 07:42:00;;;;;;;32.17;21.60;;;;;;;3.80;81.46;97794.50;5140470;27;20106;-88
2023/03/09 07:44:27;;;;;;;42.22;22.45;;;;;;;3.76;81.88;97798.81;5144919;27;20270;-80
2023/03/09 07:46:53;;;;;;;40.10;23.20;;;;;;;3.74;82.18;97817.13;5142536;27;20034;-79
2023/03/09 07:49:18;;;;;;;39.70;21.60;;;;;;;3.74;82.06;97809.81;5141281;27;20034;-79
2023/03/09 07:51:43;;;;;;;36.35;20.48;;;;;;;3.72;82.20;97809.28;5141231;27;20484;-79
2023/03/09 07:54:10;;;;;;;36.70;21.20;;;;;;;3.75;82.10;97824.13;5140837;27;20114;-80
2023/03/09 07:56:35;;;;;;;36.40;20.52;;;;;;;3.75;82.14;97829.50;5140579;27;20423;-80
2023/03/09 07:59:00;;;;;;;45.63;21.85;;;;;;;3.77;82.20;97831.94;5138191;27;20048;-77
2023/03/09 08:01:27;;;;;;;32.00;18.65;;;;;;;3.78;82.12;97826.31;5139176;27;20053;-80
2023/03/09 08:03:52;;;;;;;39.30;22.23;;;;;;;3.76;81.94;97828.44;5141534;27;20027;-79
2023/03/09 08:06:19;;;;;;;44.65;21.10;;;;;;;3.73;82.41;97839.75;5139846;27;20060;-78
2023/03/09 08:08:45;;;;;;;42.65;21.05;;;;;;;3.76;82.75;97847.31;5142531;27;20551;-78
2023/03/09 08:11:11;;;;;;;43.67;22.85;;;;;;;3.80;82.21;97858.38;5140531;27;20078;-78
2023/03/09 08:13:36;;;;;;;44.85;25.08;;;;;;;3.58;83.05;97851.31;5141527;27;20429;-78
2023/03/09 08:16:04;;;;;;;42.55;23.27;;;;;;;3.66;83.34;97863.47;5142472;27;20031;-78
2023/03/09 08:18:31;;;;;;;36.25;20.30;;;;;;;3.77;83.22;97881.28;5140483;27;20070;-79
2023/03/09 08:21:07;;;;;;;48.70;24.10;;;;;;;3.85;82.94;97879.94;5139920;27;20535;-79
2023/03/09 08:23:35;;;;;;;45.42;24.58;;;;;;;3.79;82.52;97887.22;5140210;27;20491;-79
2023/03/09 08:26:01;;;;;;;34.10;20.02;;;;;;;3.78;82.43;97891.00;5137768;27;20057;-79
2023/03/09 08:28:26;;;;;;;51.80;25.00;;;;;;;3.81;82.57;97887.75;5139328;27;20094;-82
2023/03/09 08:30:51;;;;;;;44.67;22.40;;;;;;;3.83;82.40;97885.59;5141119;27;20024;-80
2023/03/09 08:33:16;;;;;;;42.60;21.35;;;;;;;3.89;82.89;97888.31;5139828;27;20030;-80
2023/03/09 08:35:42;;;;;;;45.93;23.40;;;;;;;3.90;83.16;97896.16;5140406;27;20503;-81
2023/03/09 08:38:07;;;;;;;40.90;21.03;;;;;;;3.91;82.56;97899.63;5138608;27;20255;-82
2023/03/09 08:40:32;;;;;;;40.10;22.23;;;;;;;3.84;83.27;97908.00;5138640;27;20259;-81
2023/03/09 08:42:57;;;;;;;43.40;22.90;;;;;;;3.91;83.06;97910.41;5140189;27;20307;-81
2023/03/09 08:45:23;;;;;;;50.28;25.80;;;;;;;4.01;82.92;97913.13;5139430;27;20290;-80
2023/03/09 08:47:48;;;;;;;52.65;27.40;;;;;;;4.02;82.23;97914.78;5139507;27;20061;-81
2023/03/09 08:50:13;;;;;;;42.80;22.63;;;;;;;4.07;82.05;97916.66;5139935;27;20060;-82
2023/03/09 08:52:40;;;;;;;42.35;23.58;;;;;;;4.03;82.15;97918.25;5140193;27;20022;-81
2023/03/09 08:55:07;;;;;;;49.70;24.85;;;;;;;4.05;83.04;97927.72;5140661;27;20471;-82
2023/03/09 08:57:33;;;;;;;45.67;20.50;;;;;;;4.05;82.75;97930.41;5138213;27;20089;-80
2023/03/09 08:59:58;;;;;;;48.42;23.48;;;;;;;4.07;82.92;97940.91;5139471;27;20058;-81
2023/03/09 09:02:24;;;;;;;38.92;20.63;;;;;;;4.04;83.17;97938.78;5138586;27;20463;-80
2023/03/09 09:04:50;;;;;;;37.08;21.88;;;;;;;4.05;83.04;97951.16;5139353;27;20022;-80
2023/03/09 09:07:16;;;;;;;37.03;21.17;;;;;;;4.04;82.67;97944.97;5139210;27;20034;-81
2023/03/09 09:09:42;;;;;;;42.72;21.67;;;;;;;4.08;82.74;97943.38;5138798;27;20422;-81
2023/03/09 09:12:09;;;;;;;34.25;19.55;;;;;;;4.07;82.52;97944.44;5140216;27;20023;-80
2023/03/09 09:14:38;;;;;;;39.15;19.50;;;;;;;4.14;82.45;97948.78;5139861;27;20027;-81
2023/03/09 09:17:08;;;;;;;40.75;22.23;;;;;;;4.14;82.65;97962.25;5139290;27;20035;-81
2023/03/09 09:19:37;;;;;;;34.67;20.08;;;;;;;4.16;82.24;97970.91;5136492;27;20042;-80
2023/03/09 09:22:03;;;;;;;41.70;20.90;;;;;;;4.20;82.67;97980.06;5140414;27;20027;-81
2023/03/09 09:24:36;;;;;;;37.70;22.15;;;;;;;4.18;82.59;97982.22;5139678;27;20027;-81
2023/03/09 09:27:04;;;;;;;43.08;22.67;;;;;;;4.22;82.81;97977.09;5139126;27;20023;-82
2023/03/09 09:29:29;;;;;;;54.17;25.70;;;;;;;4.30;82.10;97973.88;5139509;27;20034;-79
2023/03/09 09:31:54;;;;;;;47.30;27.13;;;;;;;4.30;81.83;97974.69;5140423;27;20503;-81
2023/03/09 09:34:21;;;;;;;50.60;25.00;;;;;;;4.22;82.41;97986.00;5138810;27;20038;-81
2023/03/09 09:36:47;;;;;;;38.05;19.13;;;;;;;4.16;82.28;97989.78;5139880;27;20275;-80
2023/03/09 09:39:13;;;;;;;36.67;20.42;;;;;;;4.06;83.01;97991.38;5138927;27;20123;-80
2023/03/09 09:41:48;;;;;;;34.90;19.60;;;;;;;4.17;83.40;97991.41;5139328;27;20035;-80
2023/03/09 09:44:17;;;;;;;38.38;21.13;;;;;;;4.20;83.27;97980.91;5143293;27;20412;-81
2023/03/09 09:46:44;;;;;;;38.47;21.58;;;;;;;4.25;82.70;97990.06;5143697;27;20539;-80
2023/03/09 09:49:17;;;;;;;40.05;22.13;;;;;;;4.29;82.87;97997.34;5142050;27;20031;-81
2023/03/09 09:52:07;;;;;;;32.63;18.75;;;;;;;4.30;82.58;98004.38;5144004;27;20030;-81
2023/03/09 09:54:48;;;;;;;38.63;18.52;;;;;;;4.37;82.80;97997.91;5140592;27;20034;-82
2023/03/09 09:57:32;;;;;;;42.72;22.08;;;;;;;4.42;82.85;97995.22;5143129;27;20085;-82
2023/03/09 10:00:05;;;;;;;41.20;18.45;;;;;;;4.41;82.60;97996.31;5143225;27;20485;-82
2023/03/09 10:03:08;;;;;;;30.13;19.70;;;;;;;4.37;82.89;97998.75;5142340;27;20114;-80
2023/03/09 10:05:39;;;;;;;38.92;20.05;;;;;;;4.44;82.89;98004.69;5141990;27;20369;-80
2023/03/09 10:08:40;;;;;;;32.83;18.85;;;;;;;4.43;82.77;97999.56;5142317;27;20418;-81
2023/03/09 10:11:13;;;;;;;42.90;21.83;;;;;;;4.42;82.92;98009.53;5140496;27;20049;-82
2023/03/09 10:13:46;;;;;;;32.90;18.07;;;;;;;4.49;83.16;98014.69;5141749;27;20039;-80
2023/03/09 10:16:19;;;;;;;31.30;20.85;;;;;;;4.46;82.63;98011.69;5143504;27;20528;-81
2023/03/09 10:18:50;;;;;;;44.15;22.80;;;;;;;4.47;82.91;98022.22;5143581;27;20027;-79
2023/03/09 10:21:22;;;;;;;39.40;22.63;;;;;;;4.55;82.81;98032.50;5141911;27;20035;-79
2023/03/09 10:23:47;;;;;;;45.38;23.15;;;;;;;4.50;83.00;98043.28;5142173;27;20034;-79
2023/03/09 10:26:20;;;;;;;44.00;24.88;;;;;;;4.53;83.09;98037.38;5141444;27;20039;-80
2023/03/09 10:28:49;;;;;;;44.65;24.25;;;;;;;4.54;82.96;98038.97;5142043;27;20522;-80
2023/03/09 10:31:19;;;;;;;43.03;23.70;;;;;;;4.53;83.19;98048.16;5144373;27;20039;-80
2023/03/09 10:33:50;;;;;;;43.67;23.20;;;;;;;4.59;83.35;98045.47;5143285;27;20029;-81
2023/03/09 10:36:23;;;;;;;43.63;22.52;;;;;;;4.51;83.39;98044.09;5142648;27;20047;-81
2023/03/09 10:38:49;;;;;;;36.20;18.13;;;;;;;4.57;83.20;98037.63;5139819;27;20046;-80
2023/03/09 10:41:17;;;;;;;36.95;20.00;;;;;;;4.63;83.39;98039.25;5142732;27;20387;-80
2023/03/09 10:43:44;;;;;;;40.15;22.95;;;;;;;4.72;83.14;98039.53;5142473;27;20114;-81
2023/03/09 10:46:13;;;;;;;43.60;25.33;;;;;;;4.76;83.05;98039.81;5143475;27;20474;-79
2023/03/09 10:48:39;;;;;;;36.00;20.50;;;;;;;4.70;83.05;98041.69;5140982;27;20038;-80
2023/03/09 10:51:19;;;;;;;37.38;21.92;;;;;;;4.79;83.19;98045.50;5142747;27;20034;-80
2023/03/09 10:53:46;;;;;;;51.15;23.63;;;;;;;4.84;82.98;98043.88;5141120;27;20023;-81
2023/03/09 10:56:30;;;;;;;35.10;20.85;;;;;;;4.81;82.76;98047.09;5142134;27;20039;-80
2023/03/09 10:59:07;;;;;;;41.13;20.90;;;;;;;4.84;83.46;98055.47;5143855;27;20041;-79
2023/03/09 11:01:37;;;;;;;35.05;20.77;;;;;;;4.92;83.28;98058.72;5141020;27;20288;-79
2023/03/09 11:04:22;;;;;;;31.45;17.00;;;;;;;4.87;83.17;98068.44;5141219;27;20031;-80
2023/03/09 11:07:18;;;;;;;32.70;19.00;;;;;;;4.93;83.00;98077.38;5142785;27;20027;-80
2023/03/09 11:09:43;;;;;;;45.40;22.20;;;;;;;4.96;83.46;98084.13;5142128;27;20150;-79
2023/03/09 11:12:36;;;;;;;39.30;19.10;;;;;;;4.92;83.44;98093.84;5142186;27;20111;-79
2023/03/09 11:15:22;;;;;;;35.08;19.83;;;;;;;4.89;83.56;98093.28;5141603;27;20595;-81
2023/03/09 11:17:48;;;;;;;44.22;24.58;;;;;;;4.94;83.71;98092.50;5143464;27;20110;-82
2023/03/09 11:20:36;;;;;;;33.17;18.85;;;;;;;4.65;84.46;98092.97;5143784;27;20131;-83
2023/03/09 11:23:07;;;;;;;35.95;18.98;;;;;;;4.69;84.61;98096.78;5142284;27;20116;-81
2023/03/09 11:25:54;;;;;;;36.47;21.70;;;;;;;4.87;84.86;98081.13;5142357;27;20025;-81
2023/03/09 11:28:39;;;;;;;49.20;20.27;;;;;;;4.95;84.19;98086.00;5141879;27;20147;-79
2023/03/09 11:31:12;;;;;;;42.28;20.88;;;;;;;5.06;83.69;98097.63;5140565;27;20031;-79
2023/03/09 11:33:37;;;;;;;37.03;20.58;;;;;;;4.80;84.02;98100.28;5141375;27;20030;-79